sensor_id;sensor_type;location;lat;lon;timestamp;P1;durP1;ratioP1;P2;durP2;ratioP2
9106;SDS011;4589;48.690;8.952;2023-11-18T00:00:37;16.50;;;9.07;;
9106;SDS011;4589;48.690;8.952;2023-11-18T00:03:04;20.77;;;10.70;;
9106;SDS011;4589;48.690;8.952;2023-11-18T00:05:30;10.90;;;8.23;;
9106;SDS011;4589;48.690;8.952;2023-11-18T00:07:56;15.33;;;8.60;;
9106;SDS011;4589;48.690;8.952;2023-11-18T00:10:22;17.40;;;9.87;;
9106;SDS011;4589;48.690;8.952;2023-11-18T00:12:48;25.83;;;9.87;;
9106;SDS011;4589;48.690;8.952;2023-11-18T00:15:15;15.63;;;9.20;;
9106;SDS011;4589;48.690;8.952;2023-11-18T00:17:41;21.63;;;10.07;;
9106;SDS011;4589;48.690;8.952;2023-11-18T00:20:07;18.47;;;8.93;;
9106;SDS011;4589;48.690;8.952;2023-11-18T00:22:38;18.83;;;9.47;;
9106;SDS011;4589;48.690;8.952;2023-11-18T00:25:06;15.17;;;9.90;;
9106;SDS011;4589;48.690;8.952;2023-11-18T00:27:34;17.30;;;9.20;;
9106;SDS011;4589;48.690;8.952;2023-11-18T00:30:04;16.50;;;9.60;;
9106;SDS011;4589;48.690;8.952;2023-11-18T00:32:31;17.17;;;10.00;;
9106;SDS011;4589;48.690;8.952;2023-11-18T00:34:57;19.80;;;9.40;;
9106;SDS011;4589;48.690;8.952;2023-11-18T00:37:23;16.93;;;8.23;;
9106;SDS011;4589;48.690;8.952;2023-11-18T00:39:49;21.50;;;9.77;;
9106;SDS011;4589;48.690;8.952;2023-11-18T00:42:14;16.83;;;8.97;;
9106;SDS011;4589;48.690;8.952;2023-11-18T00:44:40;20.50;;;10.27;;
9106;SDS011;4589;48.690;8.952;2023-11-18T00:47:07;15.03;;;9.50;;
9106;SDS011;4589;48.690;8.952;2023-11-18T00:49:33;13.73;;;8.60;;
9106;SDS011;4589;48.690;8.952;2023-11-18T00:51:59;13.37;;;7.53;;
9106;SDS011;4589;48.690;8.952;2023-11-18T00:54:24;18.37;;;9.17;;
9106;SDS011;4589;48.690;8.952;2023-11-18T00:56:51;19.50;;;9.33;;
9106;SDS011;4589;48.690;8.952;2023-11-18T00:59:17;14.20;;;9.07;;
9106;SDS011;4589;48.690;8.952;2023-11-18T01:01:42;18.50;;;9.20;;
9106;SDS011;4589;48.690;8.952;2023-11-18T01:04:08;14.73;;;8.47;;
9106;SDS011;4589;48.690;8.952;2023-11-18T01:06:34;21.13;;;9.63;;
9106;SDS011;4589;48.690;8.952;2023-11-18T01:09:00;21.57;;;9.33;;
9106;SDS011;4589;48.690;8.952;2023-11-18T01:11:26;21.30;;;9.23;;
9106;SDS011;4589;48.690;8.952;2023-11-18T01:13:51;16.37;;;8.80;;
9106;SDS011;4589;48.690;8.952;2023-11-18T01:16:20;13.90;;;8.80;;
9106;SDS011;4589;48.690;8.952;2023-11-18T01:18:46;23.47;;;10.27;;
9106;SDS011;4589;48.690;8.952;2023-11-18T01:21:12;18.60;;;9.57;;
9106;SDS011;4589;48.690;8.952;2023-11-18T01:23:38;11.10;;;8.13;;
9106;SDS011;4589;48.690;8.952;2023-11-18T01:26:09;17.20;;;9.20;;
9106;SDS011;4589;48.690;8.952;2023-11-18T01:28:37;14.77;;;8.93;;
9106;SDS011;4589;48.690;8.952;2023-11-18T01:31:06;14.83;;;7.67;;
9106;SDS011;4589;48.690;8.952;2023-11-18T01:33:34;15.43;;;8.23;;
9106;SDS011;4589;48.690;8.952;2023-11-18T01:36:02;17.37;;;8.60;;
9106;SDS011;4589;48.690;8.952;2023-11-18T01:38:29;19.63;;;9.07;;
9106;SDS011;4589;48.690;8.952;2023-11-18T01:40:55;12.10;;;6.50;;
9106;SDS011;4589;48.690;8.952;2023-11-18T01:43:21;10.87;;;7.93;;
9106;SDS011;4589;48.690;8.952;2023-11-18T01:45:47;10.97;;;6.60;;
9106;SDS011;4589;48.690;8.952;2023-11-18T01:48:13;13.43;;;6.80;;
9106;SDS011;4589;48.690;8.952;2023-11-18T01:50:39;11.00;;;5.80;;
9106;SDS011;4589;48.690;8.952;2023-11-18T01:53:10;10.53;;;6.07;;
9106;SDS011;4589;48.690;8.952;2023-11-18T01:55:36;11.40;;;6.20;;
9106;SDS011;4589;48.690;8.952;2023-11-18T01:58:03;12.77;;;6.33;;
9106;SDS011;4589;48.690;8.952;2023-11-18T02:00:36;14.37;;;5.87;;
9106;SDS011;4589;48.690;8.952;2023-11-18T02:03:04;16.27;;;8.03;;
9106;SDS011;4589;48.690;8.952;2023-11-18T02:05:30;12.90;;;8.50;;
9106;SDS011;4589;48.690;8.952;2023-11-18T02:07:58;15.80;;;8.47;;
9106;SDS011;4589;48.690;8.952;2023-11-18T02:10:26;15.63;;;9.03;;
9106;SDS011;4589;48.690;8.952;2023-11-18T02:12:57;16.77;;;8.33;;
9106;SDS011;4589;48.690;8.952;2023-11-18T02:15:32;13.20;;;7.00;;
9106;SDS011;4589;48.690;8.952;2023-11-18T02:17:59;10.97;;;7.23;;
9106;SDS011;4589;48.690;8.952;2023-11-18T02:20:28;10.90;;;7.03;;
9106;SDS011;4589;48.690;8.952;2023-11-18T02:22:55;11.17;;;7.40;;
9106;SDS011;4589;48.690;8.952;2023-11-18T02:25:20;11.77;;;7.50;;
9106;SDS011;4589;48.690;8.952;2023-11-18T02:27:52;11.93;;;8.30;;
9106;SDS011;4589;48.690;8.952;2023-11-18T02:30:18;12.00;;;7.10;;
9106;SDS011;4589;48.690;8.952;2023-11-18T02:32:54;15.03;;;7.57;;
9106;SDS011;4589;48.690;8.952;2023-11-18T02:35:41;11.00;;;7.33;;
9106;SDS011;4589;48.690;8.952;2023-11-18T02:38:14;11.30;;;8.10;;
9106;SDS011;4589;48.690;8.952;2023-11-18T02:40:44;12.87;;;6.33;;
9106;SDS011;4589;48.690;8.952;2023-11-18T02:43:13;12.47;;;7.50;;
9106;SDS011;4589;48.690;8.952;2023-11-18T02:45:40;14.93;;;7.33;;
9106;SDS011;4589;48.690;8.952;2023-11-18T02:48:07;11.77;;;7.10;;
9106;SDS011;4589;48.690;8.952;2023-11-18T02:50:33;17.87;;;8.20;;
9106;SDS011;4589;48.690;8.952;2023-11-18T02:53:00;16.37;;;8.20;;
9106;SDS011;4589;48.690;8.952;2023-11-18T02:55:26;16.60;;;9.20;;
9106;SDS011;4589;48.690;8.952;2023-11-18T02:57:52;13.47;;;6.90;;
9106;SDS011;4589;48.690;8.952;2023-11-18T03:00:18;12.53;;;7.67;;
9106;SDS011;4589;48.690;8.952;2023-11-18T03:02:44;17.10;;;8.10;;
9106;SDS011;4589;48.690;8.952;2023-11-18T03:05:13;18.17;;;8.07;;
9106;SDS011;4589;48.690;8.952;2023-11-18T03:07:42;20.50;;;8.90;;
9106;SDS011;4589;48.690;8.952;2023-11-18T03:10:15;14.03;;;8.73;;
9106;SDS011;4589;48.690;8.952;2023-11-18T03:12:50;17.17;;;8.20;;
9106;SDS011;4589;48.690;8.952;2023-11-18T03:15:21;17.43;;;8.83;;
9106;SDS011;4589;48.690;8.952;2023-11-18T03:17:48;18.40;;;7.90;;
9106;SDS011;4589;48.690;8.952;2023-11-18T03:20:17;25.20;;;8.63;;
9106;SDS011;4589;48.690;8.952;2023-11-18T03:22:48;26.47;;;10.37;;
9106;SDS011;4589;48.690;8.952;2023-11-18T03:25:15;18.47;;;9.13;;
9106;SDS011;4589;48.690;8.952;2023-11-18T03:27:41;18.00;;;9.20;;
9106;SDS011;4589;48.690;8.952;2023-11-18T03:30:07;18.70;;;9.23;;
9106;SDS011;4589;48.690;8.952;2023-11-18T03:32:36;19.80;;;9.30;;
9106;SDS011;4589;48.690;8.952;2023-11-18T03:35:03;17.17;;;8.47;;
9106;SDS011;4589;48.690;8.952;2023-11-18T03:37:34;17.37;;;8.40;;
9106;SDS011;4589;48.690;8.952;2023-11-18T03:40:00;20.23;;;9.37;;
9106;SDS011;4589;48.690;8.952;2023-11-18T03:42:26;18.33;;;9.80;;
9106;SDS011;4589;48.690;8.952;2023-11-18T03:44:52;23.50;;;10.10;;
9106;SDS011;4589;48.690;8.952;2023-11-18T03:47:18;14.93;;;8.50;;
9106;SDS011;4589;48.690;8.952;2023-11-18T03:49:44;19.63;;;8.40;;
9106;SDS011;4589;48.690;8.952;2023-11-18T03:52:10;22.70;;;7.60;;
9106;SDS011;4589;48.690;8.952;2023-11-18T03:54:37;18.03;;;9.53;;
9106;SDS011;4589;48.690;8.952;2023-11-18T03:57:03;17.67;;;9.30;;
9106;SDS011;4589;48.690;8.952;2023-11-18T03:59:30;12.37;;;7.60;;
9106;SDS011;4589;48.690;8.952;2023-11-18T04:01:55;17.13;;;8.33;;
9106;SDS011;4589;48.690;8.952;2023-11-18T04:04:21;18.40;;;9.00;;
9106;SDS011;4589;48.690;8.952;2023-11-18T04:06:47;20.80;;;8.10;;
9106;SDS011;4589;48.690;8.952;2023-11-18T04:09:13;17.80;;;10.10;;
9106;SDS011;4589;48.690;8.952;2023-11-18T04:11:39;20.43;;;8.33;;
9106;SDS011;4589;48.690;8.952;2023-11-18T04:14:06;17.90;;;7.93;;
9106;SDS011;4589;48.690;8.952;2023-11-18T04:16:32;14.10;;;8.83;;
9106;SDS011;4589;48.690;8.952;2023-11-18T04:18:59;21.67;;;8.77;;
9106;SDS011;4589;48.690;8.952;2023-11-18T04:21:25;17.00;;;7.27;;
9106;SDS011;4589;48.690;8.952;2023-11-18T04:23:51;15.47;;;7.50;;
9106;SDS011;4589;48.690;8.952;2023-11-18T04:26:16;16.70;;;8.53;;
9106;SDS011;4589;48.690;8.952;2023-11-18T04:28:42;13.43;;;8.07;;
9106;SDS011;4589;48.690;8.952;2023-11-18T04:31:08;15.90;;;8.20;;
9106;SDS011;4589;48.690;8.952;2023-11-18T04:33:34;17.03;;;9.13;;
9106;SDS011;4589;48.690;8.952;2023-11-18T04:36:00;22.43;;;8.47;;
9106;SDS011;4589;48.690;8.952;2023-11-18T04:38:26;13.63;;;7.63;;
9106;SDS011;4589;48.690;8.952;2023-11-18T04:40:52;17.17;;;9.63;;
9106;SDS011;4589;48.690;8.952;2023-11-18T04:43:19;15.70;;;8.20;;
9106;SDS011;4589;48.690;8.952;2023-11-18T04:45:45;17.67;;;8.10;;
9106;SDS011;4589;48.690;8.952;2023-11-18T04:48:11;21.57;;;9.10;;
9106;SDS011;4589;48.690;8.952;2023-11-18T04:50:39;17.00;;;9.70;;
9106;SDS011;4589;48.690;8.952;2023-11-18T04:53:06;14.80;;;8.33;;
9106;SDS011;4589;48.690;8.952;2023-11-18T04:55:35;16.80;;;8.83;;
9106;SDS011;4589;48.690;8.952;2023-11-18T04:58:01;22.10;;;8.60;;
9106;SDS011;4589;48.690;8.952;2023-11-18T05:00:27;21.07;;;8.87;;
9106;SDS011;4589;48.690;8.952;2023-11-18T05:02:54;18.67;;;8.53;;
9106;SDS011;4589;48.690;8.952;2023-11-18T05:05:20;19.03;;;9.17;;
9106;SDS011;4589;48.690;8.952;2023-11-18T05:07:47;24.73;;;10.00;;
9106;SDS011;4589;48.690;8.952;2023-11-18T05:10:13;18.47;;;10.00;;
9106;SDS011;4589;48.690;8.952;2023-11-18T05:12:39;24.50;;;9.83;;
9106;SDS011;4589;48.690;8.952;2023-11-18T05:15:05;27.37;;;11.03;;
9106;SDS011;4589;48.690;8.952;2023-11-18T05:17:33;22.40;;;9.77;;
9106;SDS011;4589;48.690;8.952;2023-11-18T05:20:01;24.27;;;9.83;;
9106;SDS011;4589;48.690;8.952;2023-11-18T05:22:27;19.77;;;9.33;;
9106;SDS011;4589;48.690;8.952;2023-11-18T05:24:53;20.73;;;10.23;;
9106;SDS011;4589;48.690;8.952;2023-11-18T05:27:19;20.73;;;9.53;;
9106;SDS011;4589;48.690;8.952;2023-11-18T05:29:45;20.07;;;8.87;;
9106;SDS011;4589;48.690;8.952;2023-11-18T05:32:13;26.97;;;9.43;;
9106;SDS011;4589;48.690;8.952;2023-11-18T05:34:39;17.97;;;10.00;;
9106;SDS011;4589;48.690;8.952;2023-11-18T05:37:05;25.67;;;11.53;;
9106;SDS011;4589;48.690;8.952;2023-11-18T05:39:30;25.10;;;12.10;;
9106;SDS011;4589;48.690;8.952;2023-11-18T05:41:56;34.43;;;12.50;;
9106;SDS011;4589;48.690;8.952;2023-11-18T05:44:23;21.53;;;10.93;;
9106;SDS011;4589;48.690;8.952;2023-11-18T05:46:58;22.77;;;11.13;;
9106;SDS011;4589;48.690;8.952;2023-11-18T05:49:24;32.73;;;11.87;;
9106;SDS011;4589;48.690;8.952;2023-11-18T05:51:50;35.33;;;13.20;;
9106;SDS011;4589;48.690;8.952;2023-11-18T05:54:16;28.57;;;12.33;;
9106;SDS011;4589;48.690;8.952;2023-11-18T05:56:42;25.30;;;10.87;;
9106;SDS011;4589;48.690;8.952;2023-11-18T05:59:08;24.07;;;12.80;;
9106;SDS011;4589;48.690;8.952;2023-11-18T06:01:35;31.70;;;12.13;;
9106;SDS011;4589;48.690;8.952;2023-11-18T06:04:05;28.00;;;11.37;;
9106;SDS011;4589;48.690;8.952;2023-11-18T06:06:33;27.83;;;12.23;;
9106;SDS011;4589;48.690;8.952;2023-11-18T06:08:59;25.27;;;12.80;;
9106;SDS011;4589;48.690;8.952;2023-11-18T06:11:29;30.33;;;12.80;;
9106;SDS011;4589;48.690;8.952;2023-11-18T06:13:56;28.20;;;11.70;;
9106;SDS011;4589;48.690;8.952;2023-11-18T06:16:22;27.23;;;12.93;;
9106;SDS011;4589;48.690;8.952;2023-11-18T06:18:52;32.00;;;13.30;;
9106;SDS011;4589;48.690;8.952;2023-11-18T06:21:20;40.07;;;15.30;;
9106;SDS011;4589;48.690;8.952;2023-11-18T06:23:49;34.60;;;13.17;;
9106;SDS011;4589;48.690;8.952;2023-11-18T06:26:15;39.13;;;13.90;;
9106;SDS011;4589;48.690;8.952;2023-11-18T06:28:43;34.83;;;15.07;;
9106;SDS011;4589;48.690;8.952;2023-11-18T06:31:09;37.13;;;15.00;;
9106;SDS011;4589;48.690;8.952;2023-11-18T06:33:40;42.33;;;15.47;;
9106;SDS011;4589;48.690;8.952;2023-11-18T06:36:18;42.43;;;14.27;;
9106;SDS011;4589;48.690;8.952;2023-11-18T06:38:50;41.30;;;14.67;;
9106;SDS011;4589;48.690;8.952;2023-11-18T06:41:17;42.03;;;16.20;;
9106;SDS011;4589;48.690;8.952;2023-11-18T06:43:44;51.00;;;16.50;;
9106;SDS011;4589;48.690;8.952;2023-11-18T06:48:58;37.73;;;15.43;;
9106;SDS011;4589;48.690;8.952;2023-11-18T06:51:28;42.00;;;14.87;;
9106;SDS011;4589;48.690;8.952;2023-11-18T06:53:54;48.60;;;15.13;;
9106;SDS011;4589;48.690;8.952;2023-11-18T06:56:21;51.57;;;16.20;;
9106;SDS011;4589;48.690;8.952;2023-11-18T06:58:47;41.27;;;16.10;;
9106;SDS011;4589;48.690;8.952;2023-11-18T07:01:13;40.73;;;15.17;;
9106;SDS011;4589;48.690;8.952;2023-11-18T07:03:42;42.23;;;15.80;;
9106;SDS011;4589;48.690;8.952;2023-11-18T07:06:08;41.00;;;17.37;;
9106;SDS011;4589;48.690;8.952;2023-11-18T07:08:35;38.83;;;17.00;;
9106;SDS011;4589;48.690;8.952;2023-11-18T07:11:01;48.73;;;17.63;;
9106;SDS011;4589;48.690;8.952;2023-11-18T07:13:27;37.83;;;16.63;;
9106;SDS011;4589;48.690;8.952;2023-11-18T07:15:53;41.20;;;16.30;;
9106;SDS011;4589;48.690;8.952;2023-11-18T07:18:21;51.67;;;15.90;;
9106;SDS011;4589;48.690;8.952;2023-11-18T07:20:50;39.10;;;15.53;;
9106;SDS011;4589;48.690;8.952;2023-11-18T07:23:17;41.63;;;15.57;;
9106;SDS011;4589;48.690;8.952;2023-11-18T07:25:43;34.07;;;15.40;;
9106;SDS011;4589;48.690;8.952;2023-11-18T07:28:10;34.73;;;14.80;;
9106;SDS011;4589;48.690;8.952;2023-11-18T07:30:42;35.07;;;15.23;;
9106;SDS011;4589;48.690;8.952;2023-11-18T07:33:15;38.67;;;13.93;;
9106;SDS011;4589;48.690;8.952;2023-11-18T07:35:44;38.43;;;14.30;;
9106;SDS011;4589;48.690;8.952;2023-11-18T07:38:14;36.73;;;14.60;;
9106;SDS011;4589;48.690;8.952;2023-11-18T07:40:41;36.77;;;14.13;;
9106;SDS011;4589;48.690;8.952;2023-11-18T07:43:13;30.50;;;12.87;;
9106;SDS011;4589;48.690;8.952;2023-11-18T07:45:40;31.07;;;12.80;;
9106;SDS011;4589;48.690;8.952;2023-11-18T07:48:07;40.53;;;14.10;;
9106;SDS011;4589;48.690;8.952;2023-11-18T07:50:36;26.40;;;11.90;;
9106;SDS011;4589;48.690;8.952;2023-11-18T07:53:02;30.77;;;11.80;;
9106;SDS011;4589;48.690;8.952;2023-11-18T07:55:29;26.60;;;12.10;;
9106;SDS011;4589;48.690;8.952;2023-11-18T07:57:55;27.17;;;12.50;;
9106;SDS011;4589;48.690;8.952;2023-11-18T08:00:20;19.87;;;11.43;;
9106;SDS011;4589;48.690;8.952;2023-11-18T08:02:46;39.10;;;12.47;;
9106;SDS011;4589;48.690;8.952;2023-11-18T08:05:12;30.97;;;12.37;;
9106;SDS011;4589;48.690;8.952;2023-11-18T08:07:44;31.50;;;12.07;;
9106;SDS011;4589;48.690;8.952;2023-11-18T08:10:10;32.30;;;11.57;;
9106;SDS011;4589;48.690;8.952;2023-11-18T08:12:38;38.03;;;13.00;;
9106;SDS011;4589;48.690;8.952;2023-11-18T08:15:04;25.63;;;10.80;;
9106;SDS011;4589;48.690;8.952;2023-11-18T08:17:34;24.07;;;12.27;;
9106;SDS011;4589;48.690;8.952;2023-11-18T08:19:59;23.67;;;9.90;;
9106;SDS011;4589;48.690;8.952;2023-11-18T08:22:25;17.00;;;9.80;;
9106;SDS011;4589;48.690;8.952;2023-11-18T08:24:50;24.23;;;9.37;;
9106;SDS011;4589;48.690;8.952;2023-11-18T08:27:16;21.27;;;10.17;;
9106;SDS011;4589;48.690;8.952;2023-11-18T08:29:42;23.30;;;11.27;;
9106;SDS011;4589;48.690;8.952;2023-11-18T08:32:08;23.17;;;10.23;;
9106;SDS011;4589;48.690;8.952;2023-11-18T08:34:34;21.67;;;10.07;;
9106;SDS011;4589;48.690;8.952;2023-11-18T08:37:03;20.73;;;9.87;;
9106;SDS011;4589;48.690;8.952;2023-11-18T08:39:31;22.73;;;10.57;;
9106;SDS011;4589;48.690;8.952;2023-11-18T08:42:04;17.77;;;10.10;;
9106;SDS011;4589;48.690;8.952;2023-11-18T08:44:32;31.80;;;10.30;;
9106;SDS011;4589;48.690;8.952;2023-11-18T08:46:58;24.13;;;9.87;;
9106;SDS011;4589;48.690;8.952;2023-11-18T08:49:24;31.33;;;10.20;;
9106;SDS011;4589;48.690;8.952;2023-11-18T08:51:50;23.53;;;11.30;;
9106;SDS011;4589;48.690;8.952;2023-11-18T08:54:23;20.10;;;10.30;;
9106;SDS011;4589;48.690;8.952;2023-11-18T08:56:53;26.80;;;9.30;;
9106;SDS011;4589;48.690;8.952;2023-11-18T08:59:19;25.83;;;9.80;;
9106;SDS011;4589;48.690;8.952;2023-11-18T09:01:50;14.80;;;8.77;;
9106;SDS011;4589;48.690;8.952;2023-11-18T09:04:20;18.10;;;9.27;;
9106;SDS011;4589;48.690;8.952;2023-11-18T09:06:49;17.93;;;8.30;;
9106;SDS011;4589;48.690;8.952;2023-11-18T09:09:19;21.73;;;7.97;;
9106;SDS011;4589;48.690;8.952;2023-11-18T09:11:51;19.53;;;9.23;;
9106;SDS011;4589;48.690;8.952;2023-11-18T09:14:17;12.80;;;6.87;;
9106;SDS011;4589;48.690;8.952;2023-11-18T09:16:44;13.43;;;7.13;;
9106;SDS011;4589;48.690;8.952;2023-11-18T09:19:10;16.17;;;8.90;;
9106;SDS011;4589;48.690;8.952;2023-11-18T09:21:35;15.33;;;8.27;;
9106;SDS011;4589;48.690;8.952;2023-11-18T09:24:01;19.33;;;7.53;;
9106;SDS011;4589;48.690;8.952;2023-11-18T09:26:29;13.10;;;7.37;;
9106;SDS011;4589;48.690;8.952;2023-11-18T09:28:55;12.27;;;7.47;;
9106;SDS011;4589;48.690;8.952;2023-11-18T09:31:23;16.77;;;7.97;;
9106;SDS011;4589;48.690;8.952;2023-11-18T09:33:48;11.50;;;7.20;;
9106;SDS011;4589;48.690;8.952;2023-11-18T09:36:17;11.23;;;7.53;;
9106;SDS011;4589;48.690;8.952;2023-11-18T09:38:43;12.37;;;6.77;;
9106;SDS011;4589;48.690;8.952;2023-11-18T09:41:13;11.80;;;6.80;;
9106;SDS011;4589;48.690;8.952;2023-11-18T09:43:40;16.90;;;7.80;;
9106;SDS011;4589;48.690;8.952;2023-11-18T09:46:23;9.57;;;5.80;;
9106;SDS011;4589;48.690;8.952;2023-11-18T09:48:49;9.87;;;6.10;;
9106;SDS011;4589;48.690;8.952;2023-11-18T09:51:25;11.10;;;5.10;;
9106;SDS011;4589;48.690;8.952;2023-11-18T09:54:01;6.73;;;4.50;;
9106;SDS011;4589;48.690;8.952;2023-11-18T09:56:37;8.50;;;4.60;;
9106;SDS011;4589;48.690;8.952;2023-11-18T10:02:09;5.10;;;3.97;;
9106;SDS011;4589;48.690;8.952;2023-11-18T10:04:39;6.40;;;4.47;;
9106;SDS011;4589;48.690;8.952;2023-11-18T10:07:05;4.40;;;3.47;;
9106;SDS011;4589;48.690;8.952;2023-11-18T10:09:36;4.10;;;3.70;;
9106;SDS011;4589;48.690;8.952;2023-11-18T10:12:03;7.37;;;4.30;;
9106;SDS011;4589;48.690;8.952;2023-11-18T10:14:35;4.50;;;4.03;;
9106;SDS011;4589;48.690;8.952;2023-11-18T10:17:05;4.10;;;3.70;;
9106;SDS011;4589;48.690;8.952;2023-11-18T10:19:54;5.87;;;4.00;;
9106;SDS011;4589;48.690;8.952;2023-11-18T10:22:25;7.07;;;4.07;;
9106;SDS011;4589;48.690;8.952;2023-11-18T10:24:52;4.40;;;4.00;;
9106;SDS011;4589;48.690;8.952;2023-11-18T10:27:24;4.60;;;4.20;;
9106;SDS011;4589;48.690;8.952;2023-11-18T10:29:55;5.87;;;3.57;;
9106;SDS011;4589;48.690;8.952;2023-11-18T10:32:22;4.80;;;3.70;;
9106;SDS011;4589;48.690;8.952;2023-11-18T10:34:52;3.63;;;3.20;;
9106;SDS011;4589;48.690;8.952;2023-11-18T10:37:18;4.83;;;3.53;;
9106;SDS011;4589;48.690;8.952;2023-11-18T10:39:48;6.70;;;3.73;;
9106;SDS011;4589;48.690;8.952;2023-11-18T10:42:17;9.10;;;4.00;;
9106;SDS011;4589;48.690;8.952;2023-11-18T10:47:23;4.07;;;3.67;;
9106;SDS011;4589;48.690;8.952;2023-11-18T10:49:52;4.03;;;3.63;;
9106;SDS011;4589;48.690;8.952;2023-11-18T10:52:20;4.20;;;3.37;;
9106;SDS011;4589;48.690;8.952;2023-11-18T10:54:52;3.63;;;3.00;;
9106;SDS011;4589;48.690;8.952;2023-11-18T10:57:19;5.07;;;3.17;;
9106;SDS011;4589;48.690;8.952;2023-11-18T10:59:58;3.90;;;3.37;;
9106;SDS011;4589;48.690;8.952;2023-11-18T11:02:24;4.30;;;3.60;;
9106;SDS011;4589;48.690;8.952;2023-11-18T11:04:50;6.27;;;4.20;;
9106;SDS011;4589;48.690;8.952;2023-11-18T11:07:15;3.93;;;3.53;;
9106;SDS011;4589;48.690;8.952;2023-11-18T11:09:44;6.67;;;4.00;;
9106;SDS011;4589;48.690;8.952;2023-11-18T11:12:11;5.07;;;4.00;;
9106;SDS011;4589;48.690;8.952;2023-11-18T11:17:48;6.57;;;4.00;;
9106;SDS011;4589;48.690;8.952;2023-11-18T11:20:23;5.20;;;4.20;;
9106;SDS011;4589;48.690;8.952;2023-11-18T11:23:01;5.53;;;4.43;;
9106;SDS011;4589;48.690;8.952;2023-11-18T11:28:44;6.60;;;4.97;;
9106;SDS011;4589;48.690;8.952;2023-11-18T11:31:25;6.47;;;4.80;;
9106;SDS011;4589;48.690;8.952;2023-11-18T11:34:20;7.70;;;5.13;;
9106;SDS011;4589;48.690;8.952;2023-11-18T11:36:49;8.00;;;4.60;;
9106;SDS011;4589;48.690;8.952;2023-11-18T11:39:18;9.57;;;4.80;;
9106;SDS011;4589;48.690;8.952;2023-11-18T11:41:51;5.03;;;4.20;;
9106;SDS011;4589;48.690;8.952;2023-11-18T11:44:17;8.87;;;4.50;;
9106;SDS011;4589;48.690;8.952;2023-11-18T11:46:46;8.20;;;5.00;;
9106;SDS011;4589;48.690;8.952;2023-11-18T11:49:18;7.07;;;4.27;;
9106;SDS011;4589;48.690;8.952;2023-11-18T11:54:25;7.07;;;4.53;;
9106;SDS011;4589;48.690;8.952;2023-11-18T11:56:55;5.10;;;4.07;;
9106;SDS011;4589;48.690;8.952;2023-11-18T12:02:26;4.03;;;3.73;;
9106;SDS011;4589;48.690;8.952;2023-11-18T12:04:57;9.00;;;5.10;;
9106;SDS011;4589;48.690;8.952;2023-11-18T12:07:26;4.20;;;3.50;;
9106;SDS011;4589;48.690;8.952;2023-11-18T12:09:59;7.00;;;4.77;;
9106;SDS011;4589;48.690;8.952;2023-11-18T12:12:26;5.83;;;4.17;;
9106;SDS011;4589;48.690;8.952;2023-11-18T12:14:53;8.67;;;4.17;;
9106;SDS011;4589;48.690;8.952;2023-11-18T12:17:21;7.20;;;4.33;;
9106;SDS011;4589;48.690;8.952;2023-11-18T12:19:48;4.90;;;4.05;;
9106;SDS011;4589;48.690;8.952;2023-11-18T12:22:20;5.47;;;4.00;;
9106;SDS011;4589;48.690;8.952;2023-11-18T12:28:05;9.70;;;5.13;;
9106;SDS011;4589;48.690;8.952;2023-11-18T12:40:54;6.43;;;4.40;;
9106;SDS011;4589;48.690;8.952;2023-11-18T12:43:46;5.63;;;4.53;;
9106;SDS011;4589;48.690;8.952;2023-11-18T12:46:25;4.70;;;4.03;;
9106;SDS011;4589;48.690;8.952;2023-11-18T12:49:14;6.83;;;4.00;;
9106;SDS011;4589;48.690;8.952;2023-11-18T12:51:49;5.10;;;4.00;;
9106;SDS011;4589;48.690;8.952;2023-11-18T12:54:20;5.13;;;3.80;;
9106;SDS011;4589;48.690;8.952;2023-11-18T12:56:46;5.13;;;3.60;;
9106;SDS011;4589;48.690;8.952;2023-11-18T12:59:15;5.40;;;3.93;;
9106;SDS011;4589;48.690;8.952;2023-11-18T13:01:43;5.27;;;4.50;;
9106;SDS011;4589;48.690;8.952;2023-11-18T13:04:16;5.90;;;4.37;;
9106;SDS011;4589;48.690;8.952;2023-11-18T13:06:42;4.73;;;4.23;;
9106;SDS011;4589;48.690;8.952;2023-11-18T13:09:08;7.00;;;4.47;;
9106;SDS011;4589;48.690;8.952;2023-11-18T13:11:35;8.40;;;4.83;;
9106;SDS011;4589;48.690;8.952;2023-11-18T13:14:03;5.20;;;4.00;;
9106;SDS011;4589;48.690;8.952;2023-11-18T13:16:29;15.57;;;4.80;;
9106;SDS011;4589;48.690;8.952;2023-11-18T13:18:55;6.60;;;4.30;;
9106;SDS011;4589;48.690;8.952;2023-11-18T13:21:21;6.63;;;4.47;;
9106;SDS011;4589;48.690;8.952;2023-11-18T13:23:52;4.00;;;3.60;;
9106;SDS011;4589;48.690;8.952;2023-11-18T13:26:18;6.90;;;4.60;;
9106;SDS011;4589;48.690;8.952;2023-11-18T13:28:46;6.60;;;4.80;;
9106;SDS011;4589;48.690;8.952;2023-11-18T13:31:13;14.73;;;5.00;;
9106;SDS011;4589;48.690;8.952;2023-11-18T13:33:46;5.82;;;4.60;;
9106;SDS011;4589;48.690;8.952;2023-11-18T13:36:14;6.27;;;5.20;;
9106;SDS011;4589;48.690;8.952;2023-11-18T13:38:40;8.60;;;5.90;;
9106;SDS011;4589;48.690;8.952;2023-11-18T13:41:06;8.03;;;5.30;;
9106;SDS011;4589;48.690;8.952;2023-11-18T13:43:46;7.57;;;5.50;;
9106;SDS011;4589;48.690;8.952;2023-11-18T13:46:17;5.90;;;5.30;;
9106;SDS011;4589;48.690;8.952;2023-11-18T13:48:49;10.73;;;6.27;;
9106;SDS011;4589;48.690;8.952;2023-11-18T13:51:15;7.17;;;5.30;;
9106;SDS011;4589;48.690;8.952;2023-11-18T13:53:42;8.13;;;5.50;;
9106;SDS011;4589;48.690;8.952;2023-11-18T13:56:12;6.13;;;4.93;;
9106;SDS011;4589;48.690;8.952;2023-11-18T13:58:38;5.20;;;4.70;;
9106;SDS011;4589;48.690;8.952;2023-11-18T14:01:08;8.70;;;7.80;;
9106;SDS011;4589;48.690;8.952;2023-11-18T14:03:37;9.10;;;5.50;;
9106;SDS011;4589;48.690;8.952;2023-11-18T14:06:07;14.90;;;8.83;;
9106;SDS011;4589;48.690;8.952;2023-11-18T14:08:35;12.93;;;8.43;;
9106;SDS011;4589;48.690;8.952;2023-11-18T14:11:01;21.17;;;10.57;;
9106;SDS011;4589;48.690;8.952;2023-11-18T14:13:30;8.00;;;6.07;;
9106;SDS011;4589;48.690;8.952;2023-11-18T14:15:59;10.30;;;6.83;;
9106;SDS011;4589;48.690;8.952;2023-11-18T14:18:25;39.60;;;19.47;;
9106;SDS011;4589;48.690;8.952;2023-11-18T14:20:51;67.43;;;31.70;;
9106;SDS011;4589;48.690;8.952;2023-11-18T14:23:17;72.67;;;44.63;;
9106;SDS011;4589;48.690;8.952;2023-11-18T14:25:43;14.57;;;10.13;;
9106;SDS011;4589;48.690;8.952;2023-11-18T14:28:10;19.43;;;13.03;;
9106;SDS011;4589;48.690;8.952;2023-11-18T14:30:37;8.93;;;6.80;;
9106;SDS011;4589;48.690;8.952;2023-11-18T14:33:03;9.13;;;6.23;;
9106;SDS011;4589;48.690;8.952;2023-11-18T14:35:29;12.57;;;8.37;;
9106;SDS011;4589;48.690;8.952;2023-11-18T14:37:55;12.57;;;9.83;;
9106;SDS011;4589;48.690;8.952;2023-11-18T14:40:21;7.50;;;5.03;;
9106;SDS011;4589;48.690;8.952;2023-11-18T14:42:51;6.90;;;5.53;;
9106;SDS011;4589;48.690;8.952;2023-11-18T14:45:17;8.63;;;4.73;;
9106;SDS011;4589;48.690;8.952;2023-11-18T14:47:44;5.40;;;4.47;;
9106;SDS011;4589;48.690;8.952;2023-11-18T14:50:10;9.40;;;4.37;;
9106;SDS011;4589;48.690;8.952;2023-11-18T14:52:42;6.23;;;5.00;;
9106;SDS011;4589;48.690;8.952;2023-11-18T14:55:09;6.37;;;4.90;;
9106;SDS011;4589;48.690;8.952;2023-11-18T14:57:38;6.40;;;4.90;;
9106;SDS011;4589;48.690;8.952;2023-11-18T15:00:09;5.77;;;5.17;;
9106;SDS011;4589;48.690;8.952;2023-11-18T15:02:46;6.30;;;5.37;;
9106;SDS011;4589;48.690;8.952;2023-11-18T15:05:14;7.53;;;4.90;;
9106;SDS011;4589;48.690;8.952;2023-11-18T15:07:43;5.80;;;4.50;;
9106;SDS011;4589;48.690;8.952;2023-11-18T15:10:10;9.20;;;5.73;;
9106;SDS011;4589;48.690;8.952;2023-11-18T15:12:36;7.27;;;5.17;;
9106;SDS011;4589;48.690;8.952;2023-11-18T15:15:02;6.97;;;5.40;;
9106;SDS011;4589;48.690;8.952;2023-11-18T15:17:29;10.30;;;5.30;;
9106;SDS011;4589;48.690;8.952;2023-11-18T15:19:55;7.60;;;5.10;;
9106;SDS011;4589;48.690;8.952;2023-11-18T15:22:21;6.50;;;5.30;;
9106;SDS011;4589;48.690;8.952;2023-11-18T15:24:48;8.77;;;5.23;;
9106;SDS011;4589;48.690;8.952;2023-11-18T15:27:14;7.47;;;4.87;;
9106;SDS011;4589;48.690;8.952;2023-11-18T15:29:40;10.60;;;5.33;;
9106;SDS011;4589;48.690;8.952;2023-11-18T15:32:14;8.37;;;5.40;;
9106;SDS011;4589;48.690;8.952;2023-11-18T15:34:40;5.93;;;4.60;;
9106;SDS011;4589;48.690;8.952;2023-11-18T15:37:07;8.57;;;5.53;;
9106;SDS011;4589;48.690;8.952;2023-11-18T15:39:34;6.73;;;5.50;;
9106;SDS011;4589;48.690;8.952;2023-11-18T15:42:00;8.50;;;5.83;;